sensor_id;sensor_type;location;lat;lon;timestamp;P1;durP1;ratioP1;P2;durP2;ratioP2
58842;SDS011;44614;54.356;10.100;2022-12-18T00:01:44;25.17;;;12.63;;
58842;SDS011;44614;54.356;10.100;2022-12-18T00:04:15;28.63;;;12.98;;
58842;SDS011;44614;54.356;10.100;2022-12-18T00:06:47;19.38;;;12.07;;
58842;SDS011;44614;54.356;10.100;2022-12-18T00:09:12;26.13;;;14.32;;
58842;SDS011;44614;54.356;10.100;2022-12-18T00:11:38;22.23;;;11.00;;
58842;SDS011;44614;54.356;10.100;2022-12-18T00:14:03;22.87;;;13.33;;
58842;SDS011;44614;54.356;10.100;2022-12-18T00:16:29;20.85;;;11.40;;
58842;SDS011;44614;54.356;10.100;2022-12-18T00:19:00;25.13;;;12.95;;
58842;SDS011;44614;54.356;10.100;2022-12-18T00:21:26;26.38;;;12.93;;
58842;SDS011;44614;54.356;10.100;2022-12-18T00:23:55;23.33;;;13.43;;
58842;SDS011;44614;54.356;10.100;2022-12-18T00:26:30;20.60;;;11.38;;
58842;SDS011;44614;54.356;10.100;2022-12-18T00:29:01;30.42;;;13.32;;
58842;SDS011;44614;54.356;10.100;2022-12-18T00:31:28;23.98;;;12.18;;
58842;SDS011;44614;54.356;10.100;2022-12-18T00:33:54;29.88;;;13.90;;
58842;SDS011;44614;54.356;10.100;2022-12-18T00:36:23;19.45;;;11.05;;
58842;SDS011;44614;54.356;10.100;2022-12-18T00:38:50;23.42;;;11.85;;
58842;SDS011;44614;54.356;10.100;2022-12-18T00:41:16;24.33;;;13.50;;
58842;SDS011;44614;54.356;10.100;2022-12-18T00:44:03;22.50;;;12.60;;
58842;SDS011;44614;54.356;10.100;2022-12-18T00:46:29;22.35;;;11.63;;
58842;SDS011;44614;54.356;10.100;2022-12-18T00:48:54;26.65;;;11.50;;
58842;SDS011;44614;54.356;10.100;2022-12-18T00:51:20;19.33;;;11.73;;
58842;SDS011;44614;54.356;10.100;2022-12-18T00:53:45;22.77;;;11.02;;
58842;SDS011;44614;54.356;10.100;2022-12-18T00:56:10;26.48;;;11.75;;
58842;SDS011;44614;54.356;10.100;2022-12-18T00:58:36;17.50;;;11.02;;
58842;SDS011;44614;54.356;10.100;2022-12-18T01:01:03;20.13;;;11.40;;
58842;SDS011;44614;54.356;10.100;2022-12-18T01:03:29;19.08;;;11.50;;
58842;SDS011;44614;54.356;10.100;2022-12-18T01:05:54;22.42;;;12.25;;
58842;SDS011;44614;54.356;10.100;2022-12-18T01:08:19;18.47;;;11.37;;
58842;SDS011;44614;54.356;10.100;2022-12-18T01:10:45;23.43;;;12.27;;
58842;SDS011;44614;54.356;10.100;2022-12-18T01:13:10;23.48;;;11.88;;
58842;SDS011;44614;54.356;10.100;2022-12-18T01:15:35;20.17;;;11.23;;
58842;SDS011;44614;54.356;10.100;2022-12-18T01:18:01;27.48;;;11.73;;
58842;SDS011;44614;54.356;10.100;2022-12-18T01:20:26;19.67;;;11.70;;
58842;SDS011;44614;54.356;10.100;2022-12-18T01:22:51;23.30;;;11.77;;
58842;SDS011;44614;54.356;10.100;2022-12-18T01:25:16;27.30;;;12.25;;
58842;SDS011;44614;54.356;10.100;2022-12-18T01:27:42;21.08;;;10.63;;
58842;SDS011;44614;54.356;10.100;2022-12-18T01:30:07;19.67;;;12.07;;
58842;SDS011;44614;54.356;10.100;2022-12-18T01:32:33;24.10;;;11.70;;
58842;SDS011;44614;54.356;10.100;2022-12-18T01:34:58;23.58;;;12.98;;
58842;SDS011;44614;54.356;10.100;2022-12-18T01:37:24;20.40;;;11.73;;
58842;SDS011;44614;54.356;10.100;2022-12-18T01:39:49;22.48;;;11.90;;
58842;SDS011;44614;54.356;10.100;2022-12-18T01:42:15;20.50;;;12.70;;
58842;SDS011;44614;54.356;10.100;2022-12-18T01:44:53;20.77;;;10.52;;
58842;SDS011;44614;54.356;10.100;2022-12-18T01:47:22;22.90;;;11.95;;
58842;SDS011;44614;54.356;10.100;2022-12-18T01:49:47;22.35;;;11.52;;
58842;SDS011;44614;54.356;10.100;2022-12-18T01:52:14;15.82;;;9.23;;
58842;SDS011;44614;54.356;10.100;2022-12-18T01:54:41;24.48;;;11.43;;
58842;SDS011;44614;54.356;10.100;2022-12-18T01:57:07;23.10;;;10.07;;
58842;SDS011;44614;54.356;10.100;2022-12-18T01:59:33;22.08;;;11.20;;
58842;SDS011;44614;54.356;10.100;2022-12-18T02:01:59;24.38;;;11.50;;
58842;SDS011;44614;54.356;10.100;2022-12-18T02:04:27;18.48;;;10.77;;
58842;SDS011;44614;54.356;10.100;2022-12-18T02:07:06;18.90;;;9.80;;
58842;SDS011;44614;54.356;10.100;2022-12-18T02:10:07;25.30;;;11.70;;
58842;SDS011;44614;54.356;10.100;2022-12-18T02:13:14;19.70;;;9.48;;
58842;SDS011;44614;54.356;10.100;2022-12-18T02:15:58;19.17;;;10.32;;
58842;SDS011;44614;54.356;10.100;2022-12-18T02:18:42;17.25;;;10.77;;
58842;SDS011;44614;54.356;10.100;2022-12-18T02:21:22;19.30;;;9.53;;
58842;SDS011;44614;54.356;10.100;2022-12-18T02:24:17;24.17;;;11.52;;
58842;SDS011;44614;54.356;10.100;2022-12-18T02:27:07;21.52;;;10.98;;
58842;SDS011;44614;54.356;10.100;2022-12-18T02:29:43;21.88;;;9.70;;
58842;SDS011;44614;54.356;10.100;2022-12-18T02:32:14;18.02;;;11.70;;
58842;SDS011;44614;54.356;10.100;2022-12-18T02:34:45;20.70;;;10.27;;
58842;SDS011;44614;54.356;10.100;2022-12-18T02:37:13;25.45;;;10.40;;
58842;SDS011;44614;54.356;10.100;2022-12-18T02:39:41;19.77;;;10.27;;
58842;SDS011;44614;54.356;10.100;2022-12-18T02:42:09;18.75;;;9.88;;
58842;SDS011;44614;54.356;10.100;2022-12-18T02:44:46;23.35;;;11.20;;
58842;SDS011;44614;54.356;10.100;2022-12-18T02:47:14;20.90;;;9.68;;
58842;SDS011;44614;54.356;10.100;2022-12-18T02:55:04;16.40;;;9.30;;
58842;SDS011;44614;54.356;10.100;2022-12-18T03:00:33;17.05;;;9.00;;
58842;SDS011;44614;54.356;10.100;2022-12-18T03:03:11;17.15;;;9.65;;
58842;SDS011;44614;54.356;10.100;2022-12-18T03:05:47;18.08;;;9.32;;
58842;SDS011;44614;54.356;10.100;2022-12-18T03:08:47;21.20;;;10.25;;
58842;SDS011;44614;54.356;10.100;2022-12-18T03:11:17;21.58;;;11.50;;
58842;SDS011;44614;54.356;10.100;2022-12-18T03:14:03;20.48;;;9.02;;
58842;SDS011;44614;54.356;10.100;2022-12-18T03:16:31;19.17;;;9.73;;
58842;SDS011;44614;54.356;10.100;2022-12-18T03:19:10;14.75;;;9.48;;
58842;SDS011;44614;54.356;10.100;2022-12-18T03:21:42;15.50;;;9.15;;
58842;SDS011;44614;54.356;10.100;2022-12-18T03:24:12;21.15;;;10.38;;
58842;SDS011;44614;54.356;10.100;2022-12-18T03:26:40;17.17;;;10.10;;
58842;SDS011;44614;54.356;10.100;2022-12-18T03:29:12;16.13;;;10.77;;
58842;SDS011;44614;54.356;10.100;2022-12-18T03:31:44;19.58;;;9.70;;
58842;SDS011;44614;54.356;10.100;2022-12-18T03:34:15;19.20;;;11.48;;
58842;SDS011;44614;54.356;10.100;2022-12-18T03:36:47;22.73;;;9.77;;
58842;SDS011;44614;54.356;10.100;2022-12-18T03:39:13;16.95;;;8.63;;
58842;SDS011;44614;54.356;10.100;2022-12-18T03:41:46;16.88;;;9.05;;
58842;SDS011;44614;54.356;10.100;2022-12-18T03:52:20;17.80;;;9.75;;
58842;SDS011;44614;54.356;10.100;2022-12-18T03:54:59;18.35;;;9.00;;
58842;SDS011;44614;54.356;10.100;2022-12-18T03:57:27;17.70;;;10.20;;
58842;SDS011;44614;54.356;10.100;2022-12-18T03:59:56;19.48;;;10.48;;
58842;SDS011;44614;54.356;10.100;2022-12-18T04:02:25;19.52;;;10.43;;
58842;SDS011;44614;54.356;10.100;2022-12-18T04:04:51;18.27;;;9.10;;
58842;SDS011;44614;54.356;10.100;2022-12-18T04:07:18;22.90;;;9.90;;
58842;SDS011;44614;54.356;10.100;2022-12-18T04:12:11;20.08;;;10.48;;
58842;SDS011;44614;54.356;10.100;2022-12-18T04:14:36;19.23;;;10.43;;
58842;SDS011;44614;54.356;10.100;2022-12-18T04:17:02;15.95;;;8.52;;
58842;SDS011;44614;54.356;10.100;2022-12-18T04:19:28;18.70;;;11.02;;
58842;SDS011;44614;54.356;10.100;2022-12-18T04:21:53;18.38;;;8.13;;
58842;SDS011;44614;54.356;10.100;2022-12-18T04:24:18;16.90;;;9.35;;
58842;SDS011;44614;54.356;10.100;2022-12-18T04:26:44;16.95;;;9.13;;
58842;SDS011;44614;54.356;10.100;2022-12-18T04:29:10;17.70;;;9.88;;
58842;SDS011;44614;54.356;10.100;2022-12-18T04:31:35;20.25;;;9.40;;
58842;SDS011;44614;54.356;10.100;2022-12-18T04:34:00;18.23;;;8.23;;
58842;SDS011;44614;54.356;10.100;2022-12-18T04:36:26;22.23;;;10.45;;
58842;SDS011;44614;54.356;10.100;2022-12-18T04:38:52;19.92;;;10.32;;
58842;SDS011;44614;54.356;10.100;2022-12-18T04:41:17;18.10;;;9.57;;
58842;SDS011;44614;54.356;10.100;2022-12-18T04:43:43;14.93;;;8.13;;
58842;SDS011;44614;54.356;10.100;2022-12-18T04:46:08;17.20;;;8.82;;
58842;SDS011;44614;54.356;10.100;2022-12-18T04:48:34;22.85;;;9.32;;
58842;SDS011;44614;54.356;10.100;2022-12-18T04:51:00;16.05;;;9.85;;
58842;SDS011;44614;54.356;10.100;2022-12-18T04:53:25;18.83;;;9.43;;
58842;SDS011;44614;54.356;10.100;2022-12-18T04:55:51;18.75;;;9.13;;
58842;SDS011;44614;54.356;10.100;2022-12-18T04:58:37;13.48;;;8.10;;
58842;SDS011;44614;54.356;10.100;2022-12-18T05:01:04;20.48;;;8.45;;
58842;SDS011;44614;54.356;10.100;2022-12-18T05:03:30;17.37;;;8.97;;
58842;SDS011;44614;54.356;10.100;2022-12-18T05:05:55;18.35;;;9.52;;
58842;SDS011;44614;54.356;10.100;2022-12-18T05:08:21;19.67;;;9.93;;
58842;SDS011;44614;54.356;10.100;2022-12-18T05:10:46;18.88;;;9.80;;
58842;SDS011;44614;54.356;10.100;2022-12-18T05:13:12;16.52;;;8.93;;
58842;SDS011;44614;54.356;10.100;2022-12-18T05:15:37;17.00;;;8.87;;
58842;SDS011;44614;54.356;10.100;2022-12-18T05:18:02;22.90;;;8.93;;
58842;SDS011;44614;54.356;10.100;2022-12-18T05:20:28;17.92;;;9.15;;
58842;SDS011;44614;54.356;10.100;2022-12-18T05:22:54;14.32;;;9.20;;
58842;SDS011;44614;54.356;10.100;2022-12-18T05:25:20;18.92;;;9.40;;
58842;SDS011;44614;54.356;10.100;2022-12-18T05:27:48;18.15;;;8.80;;
58842;SDS011;44614;54.356;10.100;2022-12-18T05:30:14;16.05;;;7.20;;
58842;SDS011;44614;54.356;10.100;2022-12-18T05:32:40;14.67;;;8.23;;
58842;SDS011;44614;54.356;10.100;2022-12-18T05:35:07;21.85;;;8.93;;
58842;SDS011;44614;54.356;10.100;2022-12-18T05:37:34;16.77;;;8.45;;
58842;SDS011;44614;54.356;10.100;2022-12-18T05:40:00;23.25;;;8.50;;
58842;SDS011;44614;54.356;10.100;2022-12-18T05:42:26;10.57;;;6.68;;
58842;SDS011;44614;54.356;10.100;2022-12-18T05:44:51;18.80;;;9.80;;
58842;SDS011;44614;54.356;10.100;2022-12-18T05:47:17;20.60;;;9.20;;
58842;SDS011;44614;54.356;10.100;2022-12-18T05:49:42;17.55;;;9.23;;
58842;SDS011;44614;54.356;10.100;2022-12-18T05:52:07;12.05;;;8.23;;
58842;SDS011;44614;54.356;10.100;2022-12-18T05:54:33;19.73;;;9.35;;
58842;SDS011;44614;54.356;10.100;2022-12-18T05:56:59;17.35;;;9.77;;
58842;SDS011;44614;54.356;10.100;2022-12-18T05:59:24;16.87;;;7.87;;
58842;SDS011;44614;54.356;10.100;2022-12-18T06:01:49;13.43;;;9.30;;
58842;SDS011;44614;54.356;10.100;2022-12-18T06:04:15;17.52;;;8.20;;
58842;SDS011;44614;54.356;10.100;2022-12-18T06:06:40;15.25;;;7.47;;
58842;SDS011;44614;54.356;10.100;2022-12-18T06:09:06;20.27;;;7.95;;
58842;SDS011;44614;54.356;10.100;2022-12-18T06:13:59;14.55;;;8.80;;
58842;SDS011;44614;54.356;10.100;2022-12-18T06:16:24;16.77;;;8.73;;
58842;SDS011;44614;54.356;10.100;2022-12-18T06:18:51;14.30;;;9.35;;
58842;SDS011;44614;54.356;10.100;2022-12-18T06:21:16;14.40;;;9.17;;
58842;SDS011;44614;54.356;10.100;2022-12-18T06:23:41;19.03;;;7.87;;
58842;SDS011;44614;54.356;10.100;2022-12-18T06:26:07;25.75;;;8.48;;
58842;SDS011;44614;54.356;10.100;2022-12-18T06:28:34;17.60;;;8.05;;
58842;SDS011;44614;54.356;10.100;2022-12-18T06:30:59;17.75;;;6.90;;
58842;SDS011;44614;54.356;10.100;2022-12-18T06:33:25;15.88;;;7.97;;
58842;SDS011;44614;54.356;10.100;2022-12-18T06:35:53;19.23;;;8.60;;
58842;SDS011;44614;54.356;10.100;2022-12-18T06:38:18;17.05;;;7.82;;
58842;SDS011;44614;54.356;10.100;2022-12-18T06:40:43;13.63;;;8.25;;
58842;SDS011;44614;54.356;10.100;2022-12-18T06:43:09;19.47;;;9.13;;
58842;SDS011;44614;54.356;10.100;2022-12-18T06:45:34;13.17;;;7.60;;
58842;SDS011;44614;54.356;10.100;2022-12-18T06:47:59;15.75;;;8.05;;
58842;SDS011;44614;54.356;10.100;2022-12-18T06:50:25;15.10;;;7.45;;
58842;SDS011;44614;54.356;10.100;2022-12-18T06:52:50;14.30;;;8.23;;
58842;SDS011;44614;54.356;10.100;2022-12-18T06:55:15;15.27;;;8.18;;
58842;SDS011;44614;54.356;10.100;2022-12-18T06:57:41;12.37;;;7.00;;
58842;SDS011;44614;54.356;10.100;2022-12-18T07:00:06;15.65;;;8.63;;
58842;SDS011;44614;54.356;10.100;2022-12-18T07:02:32;21.13;;;8.40;;
58842;SDS011;44614;54.356;10.100;2022-12-18T07:04:57;13.88;;;7.50;;
58842;SDS011;44614;54.356;10.100;2022-12-18T07:07:23;18.10;;;11.02;;
58842;SDS011;44614;54.356;10.100;2022-12-18T07:09:49;11.10;;;6.55;;
58842;SDS011;44614;54.356;10.100;2022-12-18T07:12:15;21.60;;;8.70;;
58842;SDS011;44614;54.356;10.100;2022-12-18T07:14:40;13.60;;;8.25;;
58842;SDS011;44614;54.356;10.100;2022-12-18T07:17:08;16.20;;;8.20;;
58842;SDS011;44614;54.356;10.100;2022-12-18T07:19:34;13.23;;;8.40;;
58842;SDS011;44614;54.356;10.100;2022-12-18T07:21:59;14.20;;;7.32;;
58842;SDS011;44614;54.356;10.100;2022-12-18T07:24:25;14.38;;;8.15;;
58842;SDS011;44614;54.356;10.100;2022-12-18T07:26:50;13.27;;;7.70;;
58842;SDS011;44614;54.356;10.100;2022-12-18T07:29:15;16.67;;;8.30;;
58842;SDS011;44614;54.356;10.100;2022-12-18T07:31:41;17.70;;;7.13;;
58842;SDS011;44614;54.356;10.100;2022-12-18T07:34:09;12.77;;;6.45;;
58842;SDS011;44614;54.356;10.100;2022-12-18T07:36:36;17.52;;;7.63;;
58842;SDS011;44614;54.356;10.100;2022-12-18T07:39:01;13.03;;;7.20;;
58842;SDS011;44614;54.356;10.100;2022-12-18T07:41:26;13.87;;;8.00;;
58842;SDS011;44614;54.356;10.100;2022-12-18T07:43:51;15.47;;;8.43;;
58842;SDS011;44614;54.356;10.100;2022-12-18T07:46:17;13.70;;;6.37;;
58842;SDS011;44614;54.356;10.100;2022-12-18T07:48:43;20.27;;;8.63;;
58842;SDS011;44614;54.356;10.100;2022-12-18T07:51:12;11.70;;;7.15;;
58842;SDS011;44614;54.356;10.100;2022-12-18T07:53:38;13.43;;;7.57;;
58842;SDS011;44614;54.356;10.100;2022-12-18T07:56:04;17.55;;;6.78;;
58842;SDS011;44614;54.356;10.100;2022-12-18T07:58:32;13.50;;;7.78;;
58842;SDS011;44614;54.356;10.100;2022-12-18T08:01:07;12.25;;;8.32;;
58842;SDS011;44614;54.356;10.100;2022-12-18T08:03:34;13.32;;;7.63;;
58842;SDS011;44614;54.356;10.100;2022-12-18T08:06:00;17.85;;;8.27;;
58842;SDS011;44614;54.356;10.100;2022-12-18T08:08:27;12.43;;;5.95;;
58842;SDS011;44614;54.356;10.100;2022-12-18T08:10:53;14.43;;;8.33;;
58842;SDS011;44614;54.356;10.100;2022-12-18T08:13:18;15.05;;;7.15;;
58842;SDS011;44614;54.356;10.100;2022-12-18T08:15:44;12.07;;;7.32;;
58842;SDS011;44614;54.356;10.100;2022-12-18T08:18:09;16.25;;;8.30;;
58842;SDS011;44614;54.356;10.100;2022-12-18T08:20:34;15.27;;;7.10;;
58842;SDS011;44614;54.356;10.100;2022-12-18T08:22:59;22.80;;;12.48;;
58842;SDS011;44614;54.356;10.100;2022-12-18T08:25:25;12.30;;;7.75;;
58842;SDS011;44614;54.356;10.100;2022-12-18T08:27:50;13.35;;;7.93;;
58842;SDS011;44614;54.356;10.100;2022-12-18T08:30:16;16.33;;;7.00;;
58842;SDS011;44614;54.356;10.100;2022-12-18T08:32:41;17.20;;;7.80;;
58842;SDS011;44614;54.356;10.100;2022-12-18T08:35:06;16.15;;;8.07;;
58842;SDS011;44614;54.356;10.100;2022-12-18T08:37:33;16.20;;;7.05;;
58842;SDS011;44614;54.356;10.100;2022-12-18T08:39:58;14.50;;;6.82;;
58842;SDS011;44614;54.356;10.100;2022-12-18T08:42:24;15.98;;;7.85;;
58842;SDS011;44614;54.356;10.100;2022-12-18T08:45:08;16.88;;;9.32;;
58842;SDS011;44614;54.356;10.100;2022-12-18T08:47:34;15.43;;;8.20;;
58842;SDS011;44614;54.356;10.100;2022-12-18T08:49:59;14.13;;;7.55;;
58842;SDS011;44614;54.356;10.100;2022-12-18T08:52:24;18.63;;;8.73;;
58842;SDS011;44614;54.356;10.100;2022-12-18T08:54:50;12.13;;;6.80;;
58842;SDS011;44614;54.356;10.100;2022-12-18T08:57:15;15.07;;;8.68;;
58842;SDS011;44614;54.356;10.100;2022-12-18T08:59:41;15.50;;;7.57;;
58842;SDS011;44614;54.356;10.100;2022-12-18T09:02:08;15.35;;;7.50;;
58842;SDS011;44614;54.356;10.100;2022-12-18T09:04:35;10.65;;;6.82;;
58842;SDS011;44614;54.356;10.100;2022-12-18T09:07:00;12.23;;;7.03;;
58842;SDS011;44614;54.356;10.100;2022-12-18T09:09:25;16.33;;;6.78;;
58842;SDS011;44614;54.356;10.100;2022-12-18T09:11:51;11.68;;;6.45;;
58842;SDS011;44614;54.356;10.100;2022-12-18T09:14:16;11.80;;;7.05;;
58842;SDS011;44614;54.356;10.100;2022-12-18T09:16:41;12.50;;;6.72;;
58842;SDS011;44614;54.356;10.100;2022-12-18T09:19:08;13.85;;;8.48;;
58842;SDS011;44614;54.356;10.100;2022-12-18T09:21:37;13.85;;;7.35;;
58842;SDS011;44614;54.356;10.100;2022-12-18T09:24:04;13.55;;;7.13;;
58842;SDS011;44614;54.356;10.100;2022-12-18T09:26:30;17.17;;;8.50;;
58842;SDS011;44614;54.356;10.100;2022-12-18T09:28:56;18.38;;;8.00;;
58842;SDS011;44614;54.356;10.100;2022-12-18T09:31:22;20.15;;;9.15;;
58842;SDS011;44614;54.356;10.100;2022-12-18T09:33:48;17.52;;;7.68;;
58842;SDS011;44614;54.356;10.100;2022-12-18T09:36:15;14.35;;;8.25;;
58842;SDS011;44614;54.356;10.100;2022-12-18T09:38:42;10.73;;;6.47;;
58842;SDS011;44614;54.356;10.100;2022-12-18T09:43:46;13.43;;;6.38;;
58842;SDS011;44614;54.356;10.100;2022-12-18T09:46:19;12.80;;;6.45;;
58842;SDS011;44614;54.356;10.100;2022-12-18T09:48:51;12.25;;;6.50;;
58842;SDS011;44614;54.356;10.100;2022-12-18T09:51:21;15.10;;;6.53;;
58842;SDS011;44614;54.356;10.100;2022-12-18T09:53:53;16.30;;;7.93;;
58842;SDS011;44614;54.356;10.100;2022-12-18T09:56:27;12.30;;;6.65;;
58842;SDS011;44614;54.356;10.100;2022-12-18T09:59:01;14.90;;;8.38;;
58842;SDS011;44614;54.356;10.100;2022-12-18T10:01:28;18.95;;;9.02;;
58842;SDS011;44614;54.356;10.100;2022-12-18T10:03:55;17.23;;;7.13;;
58842;SDS011;44614;54.356;10.100;2022-12-18T10:06:26;19.15;;;8.60;;
58842;SDS011;44614;54.356;10.100;2022-12-18T10:11:53;14.85;;;8.85;;
58842;SDS011;44614;54.356;10.100;2022-12-18T10:14:34;15.55;;;6.97;;
58842;SDS011;44614;54.356;10.100;2022-12-18T10:19:43;12.57;;;7.18;;
58842;SDS011;44614;54.356;10.100;2022-12-18T10:27:47;16.00;;;7.78;;
58842;SDS011;44614;54.356;10.100;2022-12-18T10:30:17;15.80;;;9.63;;
58842;SDS011;44614;54.356;10.100;2022-12-18T10:32:44;14.38;;;8.40;;
58842;SDS011;44614;54.356;10.100;2022-12-18T10:35:30;16.40;;;7.38;;
58842;SDS011;44614;54.356;10.100;2022-12-18T10:37:59;18.80;;;7.68;;
58842;SDS011;44614;54.356;10.100;2022-12-18T10:43:20;14.20;;;7.75;;
58842;SDS011;44614;54.356;10.100;2022-12-18T10:45:58;12.98;;;8.52;;
58842;SDS011;44614;54.356;10.100;2022-12-18T10:48:31;21.58;;;9.48;;
58842;SDS011;44614;54.356;10.100;2022-12-18T10:53:24;14.25;;;7.88;;
58842;SDS011;44614;54.356;10.100;2022-12-18T10:55:52;14.93;;;8.32;;
58842;SDS011;44614;54.356;10.100;2022-12-18T10:58:21;15.20;;;7.35;;
58842;SDS011;44614;54.356;10.100;2022-12-18T11:03:33;13.75;;;8.35;;
58842;SDS011;44614;54.356;10.100;2022-12-18T11:06:04;17.10;;;8.45;;
58842;SDS011;44614;54.356;10.100;2022-12-18T11:08:34;16.25;;;9.45;;
58842;SDS011;44614;54.356;10.100;2022-12-18T11:11:00;13.70;;;7.25;;
58842;SDS011;44614;54.356;10.100;2022-12-18T11:13:27;15.73;;;7.88;;
58842;SDS011;44614;54.356;10.100;2022-12-18T11:15:54;14.13;;;8.18;;
58842;SDS011;44614;54.356;10.100;2022-12-18T11:18:27;13.82;;;7.28;;
58842;SDS011;44614;54.356;10.100;2022-12-18T11:23:34;23.33;;;8.27;;
58842;SDS011;44614;54.356;10.100;2022-12-18T11:26:02;14.80;;;8.25;;
58842;SDS011;44614;54.356;10.100;2022-12-18T11:28:34;15.02;;;7.72;;
58842;SDS011;44614;54.356;10.100;2022-12-18T11:33:41;15.65;;;8.77;;
58842;SDS011;44614;54.356;10.100;2022-12-18T11:36:09;15.82;;;6.95;;
58842;SDS011;44614;54.356;10.100;2022-12-18T11:38:36;16.63;;;8.20;;
58842;SDS011;44614;54.356;10.100;2022-12-18T11:41:13;16.15;;;7.65;;
58842;SDS011;44614;54.356;10.100;2022-12-18T11:43:41;13.35;;;7.10;;
58842;SDS011;44614;54.356;10.100;2022-12-18T11:51:44;14.85;;;7.35;;
58842;SDS011;44614;54.356;10.100;2022-12-18T11:54:18;16.80;;;8.95;;
58842;SDS011;44614;54.356;10.100;2022-12-18T12:11:12;15.00;;;7.63;;
58842;SDS011;44614;54.356;10.100;2022-12-18T12:19:42;13.90;;;7.22;;
58842;SDS011;44614;54.356;10.100;2022-12-18T12:30:28;15.27;;;7.35;;
58842;SDS011;44614;54.356;10.100;2022-12-18T12:39:08;14.75;;;8.88;;
58842;SDS011;44614;54.356;10.100;2022-12-18T12:41:40;15.25;;;6.90;;
58842;SDS011;44614;54.356;10.100;2022-12-18T12:44:59;13.20;;;7.30;;
58842;SDS011;44614;54.356;10.100;2022-12-18T12:47:22;17.50;;;7.65;;
58842;SDS011;44614;54.356;10.100;2022-12-18T12:49:53;16.15;;;8.63;;
58842;SDS011;44614;54.356;10.100;2022-12-18T12:52:30;12.45;;;6.03;;
58842;SDS011;44614;54.356;10.100;2022-12-18T12:55:01;20.35;;;8.27;;
58842;SDS011;44614;54.356;10.100;2022-12-18T12:57:36;14.63;;;7.72;;
58842;SDS011;44614;54.356;10.100;2022-12-18T13:00:07;15.88;;;7.65;;
58842;SDS011;44614;54.356;10.100;2022-12-18T13:07:52;15.85;;;7.70;;
58842;SDS011;44614;54.356;10.100;2022-12-18T13:10:24;16.30;;;7.93;;
58842;SDS011;44614;54.356;10.100;2022-12-18T13:18:05;14.30;;;7.35;;
58842;SDS011;44614;54.356;10.100;2022-12-18T13:20:38;18.20;;;8.77;;
58842;SDS011;44614;54.356;10.100;2022-12-18T13:44:36;19.45;;;9.30;;
58842;SDS011;44614;54.356;10.100;2022-12-18T13:49:50;16.30;;;9.27;;
58842;SDS011;44614;54.356;10.100;2022-12-18T13:52:26;14.25;;;6.80;;
58842;SDS011;44614;54.356;10.100;2022-12-18T13:54:55;19.02;;;9.18;;
58842;SDS011;44614;54.356;10.100;2022-12-18T13:57:29;21.60;;;9.50;;
58842;SDS011;44614;54.356;10.100;2022-12-18T13:59:59;16.83;;;11.25;;
58842;SDS011;44614;54.356;10.100;2022-12-18T14:02:53;27.38;;;13.45;;
58842;SDS011;44614;54.356;10.100;2022-12-18T14:05:23;23.63;;;11.80;;
58842;SDS011;44614;54.356;10.100;2022-12-18T14:07:52;27.30;;;13.02;;
58842;SDS011;44614;54.356;10.100;2022-12-18T14:10:18;27.65;;;11.50;;
58842;SDS011;44614;54.356;10.100;2022-12-18T14:12:45;25.98;;;11.95;;
58842;SDS011;44614;54.356;10.100;2022-12-18T14:17:53;27.00;;;12.35;;
58842;SDS011;44614;54.356;10.100;2022-12-18T14:20:27;27.55;;;13.05;;
58842;SDS011;44614;54.356;10.100;2022-12-18T14:22:54;27.23;;;11.60;;
58842;SDS011;44614;54.356;10.100;2022-12-18T14:25:22;23.15;;;11.38;;
58842;SDS011;44614;54.356;10.100;2022-12-18T14:35:29;27.30;;;11.48;;
58842;SDS011;44614;54.356;10.100;2022-12-18T14:38:09;22.33;;;8.85;;
58842;SDS011;44614;54.356;10.100;2022-12-18T14:40:34;25.95;;;10.13;;
58842;SDS011;44614;54.356;10.100;2022-12-18T14:42:59;20.52;;;9.75;;
58842;SDS011;44614;54.356;10.100;2022-12-18T14:45:41;23.63;;;10.10;;
58842;SDS011;44614;54.356;10.100;2022-12-18T14:48:11;18.50;;;10.15;;
58842;SDS011;44614;54.356;10.100;2022-12-18T14:50:40;21.30;;;10.35;;
58842;SDS011;44614;54.356;10.100;2022-12-18T14:53:06;22.55;;;10.48;;
58842;SDS011;44614;54.356;10.100;2022-12-18T14:55:46;23.13;;;11.98;;
58842;SDS011;44614;54.356;10.100;2022-12-18T14:58:13;20.52;;;8.93;;
58842;SDS011;44614;54.356;10.100;2022-12-18T15:00:42;25.02;;;11.07;;
58842;SDS011;44614;54.356;10.100;2022-12-18T15:03:08;20.40;;;8.95;;
58842;SDS011;44614;54.356;10.100;2022-12-18T15:05:35;21.67;;;9.27;;
58842;SDS011;44614;54.356;10.100;2022-12-18T15:08:01;24.50;;;12.02;;
58842;SDS011;44614;54.356;10.100;2022-12-18T15:10:31;21.13;;;13.03;;
58842;SDS011;44614;54.356;10.100;2022-12-18T15:18:20;27.42;;;11.48;;
58842;SDS011;44614;54.356;10.100;2022-12-18T15:25:45;23.58;;;9.98;;
58842;SDS011;44614;54.356;10.100;2022-12-18T15:36:18;23.87;;;9.60;;
58842;SDS011;44614;54.356;10.100;2022-12-18T15:38:48;23.02;;;8.38;;
58842;SDS011;44614;54.356;10.100;2022-12-18T15:41:21;21.10;;;8.82;;
58842;SDS011;44614;54.356;10.100;2022-12-18T15:43:47;25.05;;;9.90;;
58842;SDS011;44614;54.356;10.100;2022-12-18T15:46:18;30.77;;;12.35;;
58842;SDS011;44614;54.356;10.100;2022-12-18T15:48:46;31.33;;;11.02;;
58842;SDS011;44614;54.356;10.100;2022-12-18T15:51:17;23.67;;;10.60;;
58842;SDS011;44614;54.356;10.100;2022-12-18T15:53:45;30.90;;;9.85;;
58842;SDS011;44614;54.356;10.100;2022-12-18T15:56:13;22.77;;;9.23;;
58842;SDS011;44614;54.356;10.100;2022-12-18T15:58:58;24.73;;;11.15;;
58842;SDS011;44614;54.356;10.100;2022-12-18T16:01:25;25.20;;;11.52;;
58842;SDS011;44614;54.356;10.100;2022-12-18T16:03:52;28.00;;;10.93;;
58842;SDS011;44614;54.356;10.100;2022-12-18T16:06:19;27.30;;;11.27;;
58842;SDS011;44614;54.356;10.100;2022-12-18T16:08:44;26.48;;;13.23;;
58842;SDS011;44614;54.356;10.100;2022-12-18T16:14:04;26.83;;;11.35;;
58842;SDS011;44614;54.356;10.100;2022-12-18T16:16:30;21.27;;;9.95;;
58842;SDS011;44614;54.356;10.100;2022-12-18T16:18:56;30.75;;;9.75;;
58842;SDS011;44614;54.356;10.100;2022-12-18T16:21:21;22.73;;;11.45;;
58842;SDS011;44614;54.356;10.100;2022-12-18T16:23:46;23.63;;;10.95;;
58842;SDS011;44614;54.356;10.100;2022-12-18T16:26:12;25.70;;;9.83;;
58842;SDS011;44614;54.356;10.100;2022-12-18T16:28:37;28.00;;;9.82;;
58842;SDS011;44614;54.356;10.100;2022-12-18T16:31:02;25.10;;;10.23;;
58842;SDS011;44614;54.356;10.100;2022-12-18T16:33:28;27.92;;;11.60;;
58842;SDS011;44614;54.356;10.100;2022-12-18T16:35:53;31.13;;;11.07;;
58842;SDS011;44614;54.356;10.100;2022-12-18T16:38:18;28.00;;;10.85;;
58842;SDS011;44614;54.356;10.100;2022-12-18T16:40:44;24.58;;;10.48;;
58842;SDS011;44614;54.356;10.100;2022-12-18T16:43:27;27.45;;;10.98;;
58842;SDS011;44614;54.356;10.100;2022-12-18T16:45:53;27.10;;;10.05;;
58842;SDS011;44614;54.356;10.100;2022-12-18T16:48:22;25.60;;;13.65;;
58842;SDS011;44614;54.356;10.100;2022-12-18T16:50:47;27.40;;;10.20;;
58842;SDS011;44614;54.356;10.100;2022-12-18T16:53:12;22.70;;;11.50;;
58842;SDS011;44614;54.356;10.100;2022-12-18T16:55:38;28.05;;;11.70;;
58842;SDS011;44614;54.356;10.100;2022-12-18T16:58:03;29.75;;;11.40;;
58842;SDS011;44614;54.356;10.100;2022-12-18T17:00:28;20.77;;;9.33;;